sensor_id;sensor_type;location;lat;lon;timestamp;P1;durP1;ratioP1;P2;durP2;ratioP2
8536;SDS011;4306;50.210;10.628;2023-06-26T00:01:31;7.25;;;4.65;;
8536;SDS011;4306;50.210;10.628;2023-06-26T00:03:59;6.05;;;4.22;;
8536;SDS011;4306;50.210;10.628;2023-06-26T00:06:27;8.25;;;4.25;;
8536;SDS011;4306;50.210;10.628;2023-06-26T00:08:55;7.10;;;3.70;;
8536;SDS011;4306;50.210;10.628;2023-06-26T00:11:24;5.85;;;4.28;;
8536;SDS011;4306;50.210;10.628;2023-06-26T00:13:52;6.57;;;4.55;;
8536;SDS011;4306;50.210;10.628;2023-06-26T00:16:19;5.80;;;4.35;;
8536;SDS011;4306;50.210;10.628;2023-06-26T00:18:46;6.35;;;4.43;;
8536;SDS011;4306;50.210;10.628;2023-06-26T00:21:13;5.70;;;4.20;;
8536;SDS011;4306;50.210;10.628;2023-06-26T00:23:40;6.18;;;4.13;;
8536;SDS011;4306;50.210;10.628;2023-06-26T00:26:08;6.07;;;4.40;;
8536;SDS011;4306;50.210;10.628;2023-06-26T00:28:35;5.85;;;3.92;;
8536;SDS011;4306;50.210;10.628;2023-06-26T00:31:02;6.05;;;4.40;;
8536;SDS011;4306;50.210;10.628;2023-06-26T00:33:29;6.05;;;4.38;;
8536;SDS011;4306;50.210;10.628;2023-06-26T00:35:56;6.53;;;4.45;;
8536;SDS011;4306;50.210;10.628;2023-06-26T00:38:23;8.18;;;4.43;;
8536;SDS011;4306;50.210;10.628;2023-06-26T00:40:50;7.03;;;4.53;;
8536;SDS011;4306;50.210;10.628;2023-06-26T00:43:19;8.43;;;4.32;;
8536;SDS011;4306;50.210;10.628;2023-06-26T00:45:45;5.72;;;4.15;;
8536;SDS011;4306;50.210;10.628;2023-06-26T00:48:13;6.68;;;4.45;;
8536;SDS011;4306;50.210;10.628;2023-06-26T00:50:40;7.32;;;4.63;;
8536;SDS011;4306;50.210;10.628;2023-06-26T00:53:08;7.05;;;4.00;;
8536;SDS011;4306;50.210;10.628;2023-06-26T00:55:37;8.10;;;4.28;;
8536;SDS011;4306;50.210;10.628;2023-06-26T00:58:04;5.55;;;4.13;;
8536;SDS011;4306;50.210;10.628;2023-06-26T01:00:32;6.43;;;4.28;;
8536;SDS011;4306;50.210;10.628;2023-06-26T01:03:00;4.85;;;3.70;;
8536;SDS011;4306;50.210;10.628;2023-06-26T01:05:26;6.43;;;4.13;;
8536;SDS011;4306;50.210;10.628;2023-06-26T01:07:54;11.60;;;4.40;;
8536;SDS011;4306;50.210;10.628;2023-06-26T01:10:22;6.75;;;4.28;;
8536;SDS011;4306;50.210;10.628;2023-06-26T01:12:52;6.65;;;4.25;;
8536;SDS011;4306;50.210;10.628;2023-06-26T01:15:19;7.07;;;4.40;;
8536;SDS011;4306;50.210;10.628;2023-06-26T01:17:48;7.47;;;4.57;;
8536;SDS011;4306;50.210;10.628;2023-06-26T01:20:16;6.80;;;4.20;;
8536;SDS011;4306;50.210;10.628;2023-06-26T01:22:47;6.60;;;4.22;;
8536;SDS011;4306;50.210;10.628;2023-06-26T01:25:29;6.20;;;4.35;;
8536;SDS011;4306;50.210;10.628;2023-06-26T01:28:05;7.13;;;4.47;;
8536;SDS011;4306;50.210;10.628;2023-06-26T01:30:32;7.80;;;4.25;;
8536;SDS011;4306;50.210;10.628;2023-06-26T01:33:02;5.28;;;4.00;;
8536;SDS011;4306;50.210;10.628;2023-06-26T01:35:30;5.57;;;3.85;;
8536;SDS011;4306;50.210;10.628;2023-06-26T01:38:10;5.50;;;4.05;;
8536;SDS011;4306;50.210;10.628;2023-06-26T01:40:38;6.15;;;4.15;;
8536;SDS011;4306;50.210;10.628;2023-06-26T01:43:08;8.80;;;4.40;;
8536;SDS011;4306;50.210;10.628;2023-06-26T01:45:45;6.03;;;4.35;;
8536;SDS011;4306;50.210;10.628;2023-06-26T01:48:14;6.68;;;4.43;;
8536;SDS011;4306;50.210;10.628;2023-06-26T01:50:47;6.90;;;4.35;;
8536;SDS011;4306;50.210;10.628;2023-06-26T01:53:16;6.93;;;4.63;;
8536;SDS011;4306;50.210;10.628;2023-06-26T01:55:45;6.88;;;4.28;;
8536;SDS011;4306;50.210;10.628;2023-06-26T01:58:16;8.65;;;4.55;;
8536;SDS011;4306;50.210;10.628;2023-06-26T02:00:46;8.90;;;4.45;;
8536;SDS011;4306;50.210;10.628;2023-06-26T02:03:13;6.82;;;4.75;;
8536;SDS011;4306;50.210;10.628;2023-06-26T02:05:40;9.85;;;4.30;;
8536;SDS011;4306;50.210;10.628;2023-06-26T02:08:07;6.65;;;4.30;;
8536;SDS011;4306;50.210;10.628;2023-06-26T02:10:35;6.65;;;4.63;;
8536;SDS011;4306;50.210;10.628;2023-06-26T02:13:02;6.82;;;4.50;;
8536;SDS011;4306;50.210;10.628;2023-06-26T02:15:30;7.15;;;5.00;;
8536;SDS011;4306;50.210;10.628;2023-06-26T02:17:57;8.48;;;4.80;;
8536;SDS011;4306;50.210;10.628;2023-06-26T02:20:24;7.22;;;5.03;;
8536;SDS011;4306;50.210;10.628;2023-06-26T02:22:51;5.47;;;4.10;;
8536;SDS011;4306;50.210;10.628;2023-06-26T02:25:18;6.20;;;4.57;;
8536;SDS011;4306;50.210;10.628;2023-06-26T02:27:45;7.18;;;4.40;;
8536;SDS011;4306;50.210;10.628;2023-06-26T02:30:12;5.90;;;4.70;;
8536;SDS011;4306;50.210;10.628;2023-06-26T02:32:40;6.85;;;4.40;;
8536;SDS011;4306;50.210;10.628;2023-06-26T02:35:07;6.57;;;4.93;;
8536;SDS011;4306;50.210;10.628;2023-06-26T02:37:34;6.88;;;4.68;;
8536;SDS011;4306;50.210;10.628;2023-06-26T02:40:03;6.25;;;4.63;;
8536;SDS011;4306;50.210;10.628;2023-06-26T02:42:31;7.35;;;4.63;;
8536;SDS011;4306;50.210;10.628;2023-06-26T02:44:58;6.93;;;5.07;;
8536;SDS011;4306;50.210;10.628;2023-06-26T02:47:25;6.40;;;4.68;;
8536;SDS011;4306;50.210;10.628;2023-06-26T02:49:53;6.28;;;4.30;;
8536;SDS011;4306;50.210;10.628;2023-06-26T02:52:20;6.55;;;4.68;;
8536;SDS011;4306;50.210;10.628;2023-06-26T02:54:47;6.32;;;4.28;;
8536;SDS011;4306;50.210;10.628;2023-06-26T02:57:14;7.97;;;5.15;;
8536;SDS011;4306;50.210;10.628;2023-06-26T02:59:42;7.63;;;4.45;;
8536;SDS011;4306;50.210;10.628;2023-06-26T03:02:09;6.15;;;4.72;;
8536;SDS011;4306;50.210;10.628;2023-06-26T03:04:36;7.68;;;4.63;;
8536;SDS011;4306;50.210;10.628;2023-06-26T03:07:04;7.60;;;5.43;;
8536;SDS011;4306;50.210;10.628;2023-06-26T03:09:31;7.10;;;4.88;;
8536;SDS011;4306;50.210;10.628;2023-06-26T03:11:58;7.50;;;5.22;;
8536;SDS011;4306;50.210;10.628;2023-06-26T03:14:25;8.68;;;4.80;;
8536;SDS011;4306;50.210;10.628;2023-06-26T03:16:53;8.90;;;4.75;;
8536;SDS011;4306;50.210;10.628;2023-06-26T03:19:22;7.05;;;5.00;;
8536;SDS011;4306;50.210;10.628;2023-06-26T03:21:49;6.10;;;4.60;;
8536;SDS011;4306;50.210;10.628;2023-06-26T03:24:18;7.82;;;5.18;;
8536;SDS011;4306;50.210;10.628;2023-06-26T03:26:45;6.15;;;4.68;;
8536;SDS011;4306;50.210;10.628;2023-06-26T03:29:12;8.95;;;4.60;;
8536;SDS011;4306;50.210;10.628;2023-06-26T03:31:39;5.85;;;4.43;;
8536;SDS011;4306;50.210;10.628;2023-06-26T03:34:06;6.82;;;4.30;;
8536;SDS011;4306;50.210;10.628;2023-06-26T03:36:33;6.18;;;4.50;;
8536;SDS011;4306;50.210;10.628;2023-06-26T03:39:00;6.30;;;4.72;;
8536;SDS011;4306;50.210;10.628;2023-06-26T03:41:30;6.88;;;4.78;;
8536;SDS011;4306;50.210;10.628;2023-06-26T03:43:57;8.05;;;4.82;;
8536;SDS011;4306;50.210;10.628;2023-06-26T03:46:25;8.52;;;4.90;;
8536;SDS011;4306;50.210;10.628;2023-06-26T03:48:52;8.00;;;4.82;;
8536;SDS011;4306;50.210;10.628;2023-06-26T03:51:19;6.43;;;4.72;;
8536;SDS011;4306;50.210;10.628;2023-06-26T03:53:46;6.35;;;4.90;;
8536;SDS011;4306;50.210;10.628;2023-06-26T03:56:13;8.73;;;5.00;;
8536;SDS011;4306;50.210;10.628;2023-06-26T03:58:42;8.55;;;5.25;;
8536;SDS011;4306;50.210;10.628;2023-06-26T04:01:09;7.90;;;4.90;;
8536;SDS011;4306;50.210;10.628;2023-06-26T04:03:36;8.93;;;5.10;;
8536;SDS011;4306;50.210;10.628;2023-06-26T04:06:02;7.75;;;5.30;;
8536;SDS011;4306;50.210;10.628;2023-06-26T04:08:30;6.85;;;5.15;;
8536;SDS011;4306;50.210;10.628;2023-06-26T04:10:57;8.10;;;4.90;;
8536;SDS011;4306;50.210;10.628;2023-06-26T04:13:24;9.93;;;5.32;;
8536;SDS011;4306;50.210;10.628;2023-06-26T04:15:52;7.70;;;5.72;;
8536;SDS011;4306;50.210;10.628;2023-06-26T04:18:19;7.45;;;4.93;;
8536;SDS011;4306;50.210;10.628;2023-06-26T04:23:32;7.45;;;5.18;;
8536;SDS011;4306;50.210;10.628;2023-06-26T04:25:59;7.18;;;5.22;;
8536;SDS011;4306;50.210;10.628;2023-06-26T04:28:27;7.53;;;4.97;;
8536;SDS011;4306;50.210;10.628;2023-06-26T04:30:56;7.70;;;5.30;;
8536;SDS011;4306;50.210;10.628;2023-06-26T04:33:23;8.43;;;6.10;;
8536;SDS011;4306;50.210;10.628;2023-06-26T04:35:50;8.40;;;6.00;;
8536;SDS011;4306;50.210;10.628;2023-06-26T04:38:18;6.95;;;4.85;;
8536;SDS011;4306;50.210;10.628;2023-06-26T04:40:45;9.18;;;5.78;;
8536;SDS011;4306;50.210;10.628;2023-06-26T04:43:12;8.13;;;5.80;;
8536;SDS011;4306;50.210;10.628;2023-06-26T04:45:39;10.85;;;5.15;;
8536;SDS011;4306;50.210;10.628;2023-06-26T04:48:08;6.95;;;5.32;;
8536;SDS011;4306;50.210;10.628;2023-06-26T04:50:35;8.10;;;5.30;;
8536;SDS011;4306;50.210;10.628;2023-06-26T04:53:02;8.00;;;5.90;;
8536;SDS011;4306;50.210;10.628;2023-06-26T04:55:29;8.10;;;5.82;;
8536;SDS011;4306;50.210;10.628;2023-06-26T04:57:56;8.30;;;5.97;;
8536;SDS011;4306;50.210;10.628;2023-06-26T05:00:23;7.85;;;5.72;;
8536;SDS011;4306;50.210;10.628;2023-06-26T05:02:50;9.27;;;6.43;;
8536;SDS011;4306;50.210;10.628;2023-06-26T05:05:25;9.18;;;6.32;;
8536;SDS011;4306;50.210;10.628;2023-06-26T05:07:53;7.95;;;5.72;;
8536;SDS011;4306;50.210;10.628;2023-06-26T05:10:20;10.25;;;7.20;;
8536;SDS011;4306;50.210;10.628;2023-06-26T05:12:48;16.80;;;7.10;;
8536;SDS011;4306;50.210;10.628;2023-06-26T05:15:15;9.55;;;6.88;;
8536;SDS011;4306;50.210;10.628;2023-06-26T05:17:42;8.82;;;6.40;;
8536;SDS011;4306;50.210;10.628;2023-06-26T05:20:09;7.72;;;5.97;;
8536;SDS011;4306;50.210;10.628;2023-06-26T05:22:38;7.10;;;6.05;;
8536;SDS011;4306;50.210;10.628;2023-06-26T05:25:06;8.82;;;6.53;;
8536;SDS011;4306;50.210;10.628;2023-06-26T05:27:35;8.18;;;6.28;;
8536;SDS011;4306;50.210;10.628;2023-06-26T05:30:02;12.15;;;7.25;;
8536;SDS011;4306;50.210;10.628;2023-06-26T05:32:30;10.13;;;6.40;;
8536;SDS011;4306;50.210;10.628;2023-06-26T05:34:58;9.55;;;6.63;;
8536;SDS011;4306;50.210;10.628;2023-06-26T05:37:28;9.52;;;6.45;;
8536;SDS011;4306;50.210;10.628;2023-06-26T05:39:58;10.77;;;6.10;;
8536;SDS011;4306;50.210;10.628;2023-06-26T05:42:26;8.88;;;6.35;;
8536;SDS011;4306;50.210;10.628;2023-06-26T05:44:54;9.05;;;7.05;;
8536;SDS011;4306;50.210;10.628;2023-06-26T05:47:20;11.30;;;6.72;;
8536;SDS011;4306;50.210;10.628;2023-06-26T05:49:47;9.25;;;6.85;;
8536;SDS011;4306;50.210;10.628;2023-06-26T05:52:14;8.85;;;6.47;;
8536;SDS011;4306;50.210;10.628;2023-06-26T05:54:42;10.48;;;6.72;;
8536;SDS011;4306;50.210;10.628;2023-06-26T05:57:10;8.77;;;6.13;;
8536;SDS011;4306;50.210;10.628;2023-06-26T05:59:39;11.30;;;6.15;;
8536;SDS011;4306;50.210;10.628;2023-06-26T06:02:07;9.48;;;6.00;;
8536;SDS011;4306;50.210;10.628;2023-06-26T06:04:34;10.35;;;5.82;;
8536;SDS011;4306;50.210;10.628;2023-06-26T06:07:02;7.43;;;6.07;;
8536;SDS011;4306;50.210;10.628;2023-06-26T06:09:29;7.65;;;6.70;;
8536;SDS011;4306;50.210;10.628;2023-06-26T06:11:56;6.85;;;6.13;;
8536;SDS011;4306;50.210;10.628;2023-06-26T06:14:24;8.23;;;6.82;;
8536;SDS011;4306;50.210;10.628;2023-06-26T06:16:51;7.05;;;6.35;;
8536;SDS011;4306;50.210;10.628;2023-06-26T06:19:18;7.72;;;6.38;;
8536;SDS011;4306;50.210;10.628;2023-06-26T06:21:45;6.72;;;6.03;;
8536;SDS011;4306;50.210;10.628;2023-06-26T06:24:11;9.38;;;5.80;;
8536;SDS011;4306;50.210;10.628;2023-06-26T06:26:39;7.85;;;6.65;;
8536;SDS011;4306;50.210;10.628;2023-06-26T06:29:06;7.13;;;5.93;;
8536;SDS011;4306;50.210;10.628;2023-06-26T06:31:34;7.40;;;6.05;;
8536;SDS011;4306;50.210;10.628;2023-06-26T06:34:01;6.68;;;5.57;;
8536;SDS011;4306;50.210;10.628;2023-06-26T06:36:28;6.63;;;5.95;;
8536;SDS011;4306;50.210;10.628;2023-06-26T06:38:55;8.32;;;5.80;;
8536;SDS011;4306;50.210;10.628;2023-06-26T06:41:22;6.93;;;6.22;;
8536;SDS011;4306;50.210;10.628;2023-06-26T06:43:48;8.35;;;5.95;;
8536;SDS011;4306;50.210;10.628;2023-06-26T06:46:15;8.32;;;5.63;;
8536;SDS011;4306;50.210;10.628;2023-06-26T06:48:43;7.22;;;5.70;;
8536;SDS011;4306;50.210;10.628;2023-06-26T06:51:11;8.98;;;6.05;;
8536;SDS011;4306;50.210;10.628;2023-06-26T06:53:38;9.68;;;6.00;;
8536;SDS011;4306;50.210;10.628;2023-06-26T06:56:05;8.13;;;6.30;;
8536;SDS011;4306;50.210;10.628;2023-06-26T06:58:32;9.13;;;5.82;;
8536;SDS011;4306;50.210;10.628;2023-06-26T07:01:01;8.25;;;6.47;;
8536;SDS011;4306;50.210;10.628;2023-06-26T07:03:29;7.40;;;5.80;;
8536;SDS011;4306;50.210;10.628;2023-06-26T07:05:57;7.78;;;5.60;;
8536;SDS011;4306;50.210;10.628;2023-06-26T07:08:24;7.00;;;5.93;;
8536;SDS011;4306;50.210;10.628;2023-06-26T07:10:51;7.50;;;5.63;;
8536;SDS011;4306;50.210;10.628;2023-06-26T07:13:18;6.25;;;4.90;;
8536;SDS011;4306;50.210;10.628;2023-06-26T07:15:44;6.78;;;4.95;;
8536;SDS011;4306;50.210;10.628;2023-06-26T07:18:12;6.10;;;5.20;;
8536;SDS011;4306;50.210;10.628;2023-06-26T07:20:39;8.77;;;5.70;;
8536;SDS011;4306;50.210;10.628;2023-06-26T07:23:08;6.35;;;5.13;;
8536;SDS011;4306;50.210;10.628;2023-06-26T07:25:35;7.57;;;5.93;;
8536;SDS011;4306;50.210;10.628;2023-06-26T07:28:02;7.95;;;5.07;;
8536;SDS011;4306;50.210;10.628;2023-06-26T07:30:29;6.72;;;5.47;;
8536;SDS011;4306;50.210;10.628;2023-06-26T07:32:56;7.53;;;5.43;;
8536;SDS011;4306;50.210;10.628;2023-06-26T07:35:22;7.45;;;5.80;;
8536;SDS011;4306;50.210;10.628;2023-06-26T07:37:52;8.10;;;5.60;;
8536;SDS011;4306;50.210;10.628;2023-06-26T07:40:20;8.27;;;5.55;;
8536;SDS011;4306;50.210;10.628;2023-06-26T07:42:47;6.78;;;5.38;;
8536;SDS011;4306;50.210;10.628;2023-06-26T07:45:15;7.32;;;5.95;;
8536;SDS011;4306;50.210;10.628;2023-06-26T07:47:42;7.00;;;5.78;;
8536;SDS011;4306;50.210;10.628;2023-06-26T07:50:09;7.68;;;5.93;;
8536;SDS011;4306;50.210;10.628;2023-06-26T07:52:36;7.28;;;5.68;;
8536;SDS011;4306;50.210;10.628;2023-06-26T07:55:03;7.60;;;5.63;;
8536;SDS011;4306;50.210;10.628;2023-06-26T07:57:32;6.40;;;5.53;;
8536;SDS011;4306;50.210;10.628;2023-06-26T07:59:58;9.43;;;5.40;;
8536;SDS011;4306;50.210;10.628;2023-06-26T08:02:25;8.93;;;5.70;;
8536;SDS011;4306;50.210;10.628;2023-06-26T08:04:52;7.07;;;5.40;;
8536;SDS011;4306;50.210;10.628;2023-06-26T08:07:19;8.13;;;5.78;;
8536;SDS011;4306;50.210;10.628;2023-06-26T08:09:46;8.07;;;5.47;;
8536;SDS011;4306;50.210;10.628;2023-06-26T08:12:13;8.15;;;5.65;;
8536;SDS011;4306;50.210;10.628;2023-06-26T08:14:41;6.88;;;5.43;;
8536;SDS011;4306;50.210;10.628;2023-06-26T08:17:08;7.38;;;5.43;;
8536;SDS011;4306;50.210;10.628;2023-06-26T08:19:35;8.00;;;5.53;;
8536;SDS011;4306;50.210;10.628;2023-06-26T08:22:03;7.13;;;5.40;;
8536;SDS011;4306;50.210;10.628;2023-06-26T08:24:30;7.88;;;6.20;;
8536;SDS011;4306;50.210;10.628;2023-06-26T08:26:57;7.65;;;5.63;;
8536;SDS011;4306;50.210;10.628;2023-06-26T08:29:24;9.75;;;5.97;;
8536;SDS011;4306;50.210;10.628;2023-06-26T08:31:57;6.55;;;5.43;;
8536;SDS011;4306;50.210;10.628;2023-06-26T08:34:24;8.02;;;5.40;;
8536;SDS011;4306;50.210;10.628;2023-06-26T08:36:51;8.63;;;5.60;;
8536;SDS011;4306;50.210;10.628;2023-06-26T08:39:18;6.80;;;5.40;;
8536;SDS011;4306;50.210;10.628;2023-06-26T08:41:45;6.38;;;5.65;;
8536;SDS011;4306;50.210;10.628;2023-06-26T08:44:12;8.60;;;5.57;;
8536;SDS011;4306;50.210;10.628;2023-06-26T08:46:40;7.25;;;5.70;;
8536;SDS011;4306;50.210;10.628;2023-06-26T08:49:11;7.55;;;6.03;;
8536;SDS011;4306;50.210;10.628;2023-06-26T08:51:45;7.22;;;5.45;;
8536;SDS011;4306;50.210;10.628;2023-06-26T08:54:18;6.82;;;5.78;;
8536;SDS011;4306;50.210;10.628;2023-06-26T08:56:48;7.70;;;5.38;;
8536;SDS011;4306;50.210;10.628;2023-06-26T08:59:16;9.05;;;5.72;;
8536;SDS011;4306;50.210;10.628;2023-06-26T09:01:43;7.10;;;6.03;;
8536;SDS011;4306;50.210;10.628;2023-06-26T09:04:13;9.80;;;6.07;;
8536;SDS011;4306;50.210;10.628;2023-06-26T09:07:20;7.43;;;6.13;;
8536;SDS011;4306;50.210;10.628;2023-06-26T09:10:29;6.88;;;5.32;;
8536;SDS011;4306;50.210;10.628;2023-06-26T09:12:56;8.05;;;6.18;;
8536;SDS011;4306;50.210;10.628;2023-06-26T09:15:23;8.30;;;5.57;;
8536;SDS011;4306;50.210;10.628;2023-06-26T09:17:50;7.05;;;5.80;;
8536;SDS011;4306;50.210;10.628;2023-06-26T09:20:25;6.70;;;5.97;;
8536;SDS011;4306;50.210;10.628;2023-06-26T09:22:54;8.27;;;5.45;;
8536;SDS011;4306;50.210;10.628;2023-06-26T09:25:21;6.68;;;5.30;;
8536;SDS011;4306;50.210;10.628;2023-06-26T09:27:49;6.95;;;6.25;;
8536;SDS011;4306;50.210;10.628;2023-06-26T09:30:16;9.00;;;6.07;;
8536;SDS011;4306;50.210;10.628;2023-06-26T09:32:43;6.97;;;5.57;;
8536;SDS011;4306;50.210;10.628;2023-06-26T09:35:10;7.68;;;5.55;;
8536;SDS011;4306;50.210;10.628;2023-06-26T09:37:39;6.78;;;5.65;;
8536;SDS011;4306;50.210;10.628;2023-06-26T09:40:06;8.32;;;5.47;;
8536;SDS011;4306;50.210;10.628;2023-06-26T09:42:34;6.72;;;5.47;;
8536;SDS011;4306;50.210;10.628;2023-06-26T09:45:01;6.78;;;6.07;;
8536;SDS011;4306;50.210;10.628;2023-06-26T09:47:30;6.53;;;5.35;;
8536;SDS011;4306;50.210;10.628;2023-06-26T09:49:57;6.78;;;5.68;;
8536;SDS011;4306;50.210;10.628;2023-06-26T09:52:25;7.78;;;5.53;;
8536;SDS011;4306;50.210;10.628;2023-06-26T09:55:08;6.63;;;5.45;;
8536;SDS011;4306;50.210;10.628;2023-06-26T09:57:35;7.93;;;5.75;;
8536;SDS011;4306;50.210;10.628;2023-06-26T10:00:02;7.53;;;5.60;;
8536;SDS011;4306;50.210;10.628;2023-06-26T10:02:30;6.10;;;4.88;;
8536;SDS011;4306;50.210;10.628;2023-06-26T10:04:57;7.03;;;5.32;;
8536;SDS011;4306;50.210;10.628;2023-06-26T10:07:24;6.75;;;5.38;;
8536;SDS011;4306;50.210;10.628;2023-06-26T10:09:51;6.28;;;4.78;;
8536;SDS011;4306;50.210;10.628;2023-06-26T10:12:25;6.15;;;4.72;;
8536;SDS011;4306;50.210;10.628;2023-06-26T10:14:54;6.25;;;5.20;;
8536;SDS011;4306;50.210;10.628;2023-06-26T10:17:22;6.13;;;4.82;;
8536;SDS011;4306;50.210;10.628;2023-06-26T10:19:51;6.00;;;4.57;;
8536;SDS011;4306;50.210;10.628;2023-06-26T10:22:21;5.85;;;4.78;;
8536;SDS011;4306;50.210;10.628;2023-06-26T10:24:51;6.78;;;4.75;;
8536;SDS011;4306;50.210;10.628;2023-06-26T10:27:21;5.53;;;4.63;;
8536;SDS011;4306;50.210;10.628;2023-06-26T10:29:53;9.65;;;4.80;;
8536;SDS011;4306;50.210;10.628;2023-06-26T10:32:22;7.05;;;4.65;;
8536;SDS011;4306;50.210;10.628;2023-06-26T10:34:51;7.20;;;4.90;;
8536;SDS011;4306;50.210;10.628;2023-06-26T10:40:08;6.68;;;5.07;;
8536;SDS011;4306;50.210;10.628;2023-06-26T10:42:37;5.70;;;4.28;;
8536;SDS011;4306;50.210;10.628;2023-06-26T10:45:08;5.65;;;4.60;;
8536;SDS011;4306;50.210;10.628;2023-06-26T10:47:36;7.50;;;4.75;;
8536;SDS011;4306;50.210;10.628;2023-06-26T10:50:16;5.38;;;4.53;;
8536;SDS011;4306;50.210;10.628;2023-06-26T10:52:45;5.50;;;4.32;;
8536;SDS011;4306;50.210;10.628;2023-06-26T10:55:13;5.40;;;4.30;;
8536;SDS011;4306;50.210;10.628;2023-06-26T10:57:45;5.85;;;4.57;;
8536;SDS011;4306;50.210;10.628;2023-06-26T11:00:14;6.00;;;4.82;;
8536;SDS011;4306;50.210;10.628;2023-06-26T11:02:48;7.47;;;4.15;;
8536;SDS011;4306;50.210;10.628;2023-06-26T11:05:23;5.68;;;4.55;;
8536;SDS011;4306;50.210;10.628;2023-06-26T11:08:04;6.40;;;4.63;;
8536;SDS011;4306;50.210;10.628;2023-06-26T11:10:48;6.53;;;4.80;;
8536;SDS011;4306;50.210;10.628;2023-06-26T11:13:19;6.10;;;4.85;;
8536;SDS011;4306;50.210;10.628;2023-06-26T11:15:46;6.18;;;4.13;;
8536;SDS011;4306;50.210;10.628;2023-06-26T11:18:14;5.82;;;4.40;;
8536;SDS011;4306;50.210;10.628;2023-06-26T11:20:41;5.43;;;4.65;;
8536;SDS011;4306;50.210;10.628;2023-06-26T11:23:08;5.65;;;4.70;;
8536;SDS011;4306;50.210;10.628;2023-06-26T11:25:36;6.22;;;4.75;;
8536;SDS011;4306;50.210;10.628;2023-06-26T11:28:04;6.28;;;4.30;;
8536;SDS011;4306;50.210;10.628;2023-06-26T11:30:32;5.35;;;4.57;;
8536;SDS011;4306;50.210;10.628;2023-06-26T11:33:03;6.35;;;4.47;;
8536;SDS011;4306;50.210;10.628;2023-06-26T11:35:30;6.13;;;4.50;;
8536;SDS011;4306;50.210;10.628;2023-06-26T11:37:57;7.32;;;5.07;;
8536;SDS011;4306;50.210;10.628;2023-06-26T11:40:26;7.43;;;5.18;;
8536;SDS011;4306;50.210;10.628;2023-06-26T11:42:55;6.30;;;5.13;;
8536;SDS011;4306;50.210;10.628;2023-06-26T11:45:23;5.30;;;4.35;;
8536;SDS011;4306;50.210;10.628;2023-06-26T11:47:51;6.03;;;4.80;;
8536;SDS011;4306;50.210;10.628;2023-06-26T11:50:20;5.65;;;4.40;;
8536;SDS011;4306;50.210;10.628;2023-06-26T11:52:52;7.03;;;3.95;;
8536;SDS011;4306;50.210;10.628;2023-06-26T11:55:19;5.65;;;4.53;;
8536;SDS011;4306;50.210;10.628;2023-06-26T11:57:47;9.95;;;4.97;;
8536;SDS011;4306;50.210;10.628;2023-06-26T12:00:16;5.63;;;5.13;;
8536;SDS011;4306;50.210;10.628;2023-06-26T12:02:44;5.20;;;3.90;;
8536;SDS011;4306;50.210;10.628;2023-06-26T12:05:13;4.85;;;4.10;;
8536;SDS011;4306;50.210;10.628;2023-06-26T12:07:41;5.68;;;4.30;;
8536;SDS011;4306;50.210;10.628;2023-06-26T12:10:09;7.68;;;4.63;;
8536;SDS011;4306;50.210;10.628;2023-06-26T12:12:37;7.45;;;4.55;;
8536;SDS011;4306;50.210;10.628;2023-06-26T12:15:05;5.43;;;4.15;;
8536;SDS011;4306;50.210;10.628;2023-06-26T12:17:36;4.53;;;4.03;;
8536;SDS011;4306;50.210;10.628;2023-06-26T12:20:05;7.50;;;4.60;;
8536;SDS011;4306;50.210;10.628;2023-06-26T12:22:45;5.82;;;4.80;;
8536;SDS011;4306;50.210;10.628;2023-06-26T12:25:12;6.38;;;4.72;;
8536;SDS011;4306;50.210;10.628;2023-06-26T12:27:39;5.45;;;4.30;;
8536;SDS011;4306;50.210;10.628;2023-06-26T12:30:06;5.32;;;4.63;;
8536;SDS011;4306;50.210;10.628;2023-06-26T12:32:34;5.72;;;4.85;;
8536;SDS011;4306;50.210;10.628;2023-06-26T12:35:01;5.47;;;4.55;;
8536;SDS011;4306;50.210;10.628;2023-06-26T12:37:28;5.32;;;4.40;;
8536;SDS011;4306;50.210;10.628;2023-06-26T12:40:09;6.43;;;4.80;;
8536;SDS011;4306;50.210;10.628;2023-06-26T12:42:43;5.72;;;4.88;;
8536;SDS011;4306;50.210;10.628;2023-06-26T12:45:10;5.38;;;4.85;;
8536;SDS011;4306;50.210;10.628;2023-06-26T12:47:38;6.28;;;4.88;;
8536;SDS011;4306;50.210;10.628;2023-06-26T12:50:06;6.15;;;4.50;;
8536;SDS011;4306;50.210;10.628;2023-06-26T12:52:34;5.97;;;4.70;;
8536;SDS011;4306;50.210;10.628;2023-06-26T12:55:01;7.88;;;5.13;;
8536;SDS011;4306;50.210;10.628;2023-06-26T12:57:29;5.82;;;5.13;;
8536;SDS011;4306;50.210;10.628;2023-06-26T12:59:56;6.45;;;4.95;;
8536;SDS011;4306;50.210;10.628;2023-06-26T13:02:24;5.82;;;5.07;;
8536;SDS011;4306;50.210;10.628;2023-06-26T13:04:51;7.57;;;5.70;;
8536;SDS011;4306;50.210;10.628;2023-06-26T13:07:18;5.93;;;5.32;;
8536;SDS011;4306;50.210;10.628;2023-06-26T13:09:45;6.47;;;5.60;;
8536;SDS011;4306;50.210;10.628;2023-06-26T13:12:13;6.72;;;4.85;;
8536;SDS011;4306;50.210;10.628;2023-06-26T13:14:41;7.38;;;5.70;;
8536;SDS011;4306;50.210;10.628;2023-06-26T13:17:08;6.60;;;4.93;;
8536;SDS011;4306;50.210;10.628;2023-06-26T13:19:37;6.90;;;4.70;;
8536;SDS011;4306;50.210;10.628;2023-06-26T13:22:04;6.75;;;4.60;;
8536;SDS011;4306;50.210;10.628;2023-06-26T13:24:31;5.20;;;4.65;;
8536;SDS011;4306;50.210;10.628;2023-06-26T13:26:58;8.32;;;7.63;;
8536;SDS011;4306;50.210;10.628;2023-06-26T13:29:25;5.97;;;5.20;;
8536;SDS011;4306;50.210;10.628;2023-06-26T13:31:53;6.20;;;4.85;;
8536;SDS011;4306;50.210;10.628;2023-06-26T13:34:22;6.82;;;4.93;;
8536;SDS011;4306;50.210;10.628;2023-06-26T13:36:49;8.35;;;5.10;;
8536;SDS011;4306;50.210;10.628;2023-06-26T13:39:16;8.57;;;7.75;;
8536;SDS011;4306;50.210;10.628;2023-06-26T13:41:42;7.75;;;4.80;;
8536;SDS011;4306;50.210;10.628;2023-06-26T13:44:09;7.32;;;5.30;;
8536;SDS011;4306;50.210;10.628;2023-06-26T13:46:36;6.28;;;5.00;;
8536;SDS011;4306;50.210;10.628;2023-06-26T13:49:04;7.10;;;5.28;;
8536;SDS011;4306;50.210;10.628;2023-06-26T13:51:31;6.95;;;5.50;;
8536;SDS011;4306;50.210;10.628;2023-06-26T13:53:58;8.63;;;7.00;;
8536;SDS011;4306;50.210;10.628;2023-06-26T13:56:25;7.32;;;5.15;;
8536;SDS011;4306;50.210;10.628;2023-06-26T13:58:55;6.28;;;4.72;;
8536;SDS011;4306;50.210;10.628;2023-06-26T14:01:23;6.35;;;5.30;;
8536;SDS011;4306;50.210;10.628;2023-06-26T14:03:50;7.40;;;6.30;;
8536;SDS011;4306;50.210;10.628;2023-06-26T14:06:18;7.15;;;5.57;;
8536;SDS011;4306;50.210;10.628;2023-06-26T14:08:45;6.68;;;5.32;;
8536;SDS011;4306;50.210;10.628;2023-06-26T14:11:13;6.15;;;5.07;;
8536;SDS011;4306;50.210;10.628;2023-06-26T14:13:40;6.25;;;5.55;;
8536;SDS011;4306;50.210;10.628;2023-06-26T14:16:07;8.00;;;5.55;;
8536;SDS011;4306;50.210;10.628;2023-06-26T14:18:34;6.30;;;5.63;;
8536;SDS011;4306;50.210;10.628;2023-06-26T14:21:01;6.63;;;5.68;;
8536;SDS011;4306;50.210;10.628;2023-06-26T14:23:30;7.05;;;6.35;;
8536;SDS011;4306;50.210;10.628;2023-06-26T14:25:57;6.53;;;5.28;;
8536;SDS011;4306;50.210;10.628;2023-06-26T14:28:24;8.00;;;6.05;;
8536;SDS011;4306;50.210;10.628;2023-06-26T14:30:50;8.20;;;6.18;;
8536;SDS011;4306;50.210;10.628;2023-06-26T14:33:17;8.40;;;7.60;;
8536;SDS011;4306;50.210;10.628;2023-06-26T14:35:44;8.32;;;5.35;;
8536;SDS011;4306;50.210;10.628;2023-06-26T14:38:11;8.43;;;5.72;;
8536;SDS011;4306;50.210;10.628;2023-06-26T14:40:39;7.97;;;6.43;;
8536;SDS011;4306;50.210;10.628;2023-06-26T14:43:06;7.20;;;5.90;;
8536;SDS011;4306;50.210;10.628;2023-06-26T14:45:33;7.18;;;5.78;;
8536;SDS011;4306;50.210;10.628;2023-06-26T14:48:00;7.15;;;5.93;;
8536;SDS011;4306;50.210;10.628;2023-06-26T14:50:27;6.70;;;5.78;;
8536;SDS011;4306;50.210;10.628;2023-06-26T14:52:54;6.72;;;5.70;;
8536;SDS011;4306;50.210;10.628;2023-06-26T14:55:21;7.47;;;5.53;;
8536;SDS011;4306;50.210;10.628;2023-06-26T14:57:49;6.57;;;5.65;;
8536;SDS011;4306;50.210;10.628;2023-06-26T15:00:17;7.15;;;5.65;;
8536;SDS011;4306;50.210;10.628;2023-06-26T15:02:45;6.22;;;5.63;;
8536;SDS011;4306;50.210;10.628;2023-06-26T15:05:12;6.47;;;5.63;;
8536;SDS011;4306;50.210;10.628;2023-06-26T15:07:40;7.13;;;6.00;;
8536;SDS011;4306;50.210;10.628;2023-06-26T15:10:07;8.23;;;5.68;;
8536;SDS011;4306;50.210;10.628;2023-06-26T15:12:35;7.60;;;5.50;;